sensor_id;sensor_type;location;lat;lon;timestamp;P1;durP1;ratioP1;P2;durP2;ratioP2
47413;SDS011;33163;0.000;0.000;2022-10-31T00:00:56;32.28;;;19.45;;
47413;SDS011;33163;0.000;0.000;2022-10-31T00:03:24;33.47;;;18.73;;
47413;SDS011;33163;0.000;0.000;2022-10-31T00:05:51;31.80;;;20.02;;
47413;SDS011;33163;0.000;0.000;2022-10-31T00:08:20;31.83;;;18.73;;
47413;SDS011;33163;0.000;0.000;2022-10-31T00:10:46;30.58;;;18.38;;
47413;SDS011;33163;0.000;0.000;2022-10-31T00:13:14;30.35;;;17.42;;
47413;SDS011;33163;0.000;0.000;2022-10-31T00:15:41;30.33;;;17.17;;
47413;SDS011;33163;0.000;0.000;2022-10-31T00:18:08;25.95;;;16.00;;
47413;SDS011;33163;0.000;0.000;2022-10-31T00:20:35;28.75;;;14.77;;
47413;SDS011;33163;0.000;0.000;2022-10-31T00:23:04;24.20;;;14.90;;
47413;SDS011;33163;0.000;0.000;2022-10-31T00:25:34;25.48;;;15.05;;
47413;SDS011;33163;0.000;0.000;2022-10-31T00:28:02;25.55;;;14.90;;
47413;SDS011;33163;0.000;0.000;2022-10-31T00:30:29;22.50;;;14.35;;
47413;SDS011;33163;0.000;0.000;2022-10-31T00:32:55;21.10;;;13.15;;
47413;SDS011;33163;0.000;0.000;2022-10-31T00:35:22;24.30;;;14.05;;
47413;SDS011;33163;0.000;0.000;2022-10-31T00:37:49;25.23;;;13.75;;
47413;SDS011;33163;0.000;0.000;2022-10-31T00:40:16;23.15;;;14.68;;
47413;SDS011;33163;0.000;0.000;2022-10-31T00:42:44;22.77;;;13.70;;
47413;SDS011;33163;0.000;0.000;2022-10-31T00:45:10;20.73;;;12.48;;
47413;SDS011;33163;0.000;0.000;2022-10-31T00:47:38;21.25;;;12.55;;
47413;SDS011;33163;0.000;0.000;2022-10-31T00:50:05;23.65;;;13.38;;
47413;SDS011;33163;0.000;0.000;2022-10-31T00:52:32;21.05;;;12.40;;
47413;SDS011;33163;0.000;0.000;2022-10-31T00:54:59;19.25;;;11.73;;
47413;SDS011;33163;0.000;0.000;2022-10-31T00:57:26;18.02;;;11.73;;
47413;SDS011;33163;0.000;0.000;2022-10-31T00:59:54;20.45;;;13.10;;
47413;SDS011;33163;0.000;0.000;2022-10-31T01:02:20;19.33;;;11.57;;
47413;SDS011;33163;0.000;0.000;2022-10-31T01:04:47;20.08;;;12.80;;
47413;SDS011;33163;0.000;0.000;2022-10-31T01:07:14;16.17;;;11.25;;
47413;SDS011;33163;0.000;0.000;2022-10-31T01:09:41;20.30;;;11.70;;
47413;SDS011;33163;0.000;0.000;2022-10-31T01:12:08;18.75;;;10.05;;
47413;SDS011;33163;0.000;0.000;2022-10-31T01:14:34;16.40;;;9.75;;
47413;SDS011;33163;0.000;0.000;2022-10-31T01:17:03;16.77;;;9.77;;
47413;SDS011;33163;0.000;0.000;2022-10-31T01:19:29;16.05;;;10.02;;
47413;SDS011;33163;0.000;0.000;2022-10-31T01:21:56;15.50;;;9.45;;
47413;SDS011;33163;0.000;0.000;2022-10-31T01:24:23;16.52;;;9.93;;
47413;SDS011;33163;0.000;0.000;2022-10-31T01:26:50;16.67;;;9.45;;
47413;SDS011;33163;0.000;0.000;2022-10-31T01:29:16;15.02;;;8.93;;
47413;SDS011;33163;0.000;0.000;2022-10-31T01:31:43;18.52;;;10.55;;
47413;SDS011;33163;0.000;0.000;2022-10-31T01:34:12;13.55;;;8.25;;
47413;SDS011;33163;0.000;0.000;2022-10-31T01:36:40;13.30;;;8.57;;
47413;SDS011;33163;0.000;0.000;2022-10-31T01:39:13;13.38;;;8.15;;
47413;SDS011;33163;0.000;0.000;2022-10-31T01:41:41;13.95;;;9.23;;
47413;SDS011;33163;0.000;0.000;2022-10-31T01:47:17;12.00;;;7.60;;
47413;SDS011;33163;0.000;0.000;2022-10-31T01:49:49;13.88;;;7.80;;
47413;SDS011;33163;0.000;0.000;2022-10-31T01:52:20;14.93;;;7.95;;
47413;SDS011;33163;0.000;0.000;2022-10-31T01:54:51;14.15;;;8.82;;
47413;SDS011;33163;0.000;0.000;2022-10-31T01:57:21;12.32;;;7.72;;
47413;SDS011;33163;0.000;0.000;2022-10-31T01:59:49;12.20;;;6.53;;
47413;SDS011;33163;0.000;0.000;2022-10-31T02:02:19;10.90;;;6.85;;
47413;SDS011;33163;0.000;0.000;2022-10-31T02:04:46;11.25;;;7.38;;
47413;SDS011;33163;0.000;0.000;2022-10-31T02:07:16;10.43;;;6.45;;
47413;SDS011;33163;0.000;0.000;2022-10-31T02:09:46;12.18;;;6.57;;
47413;SDS011;33163;0.000;0.000;2022-10-31T02:12:14;9.68;;;6.38;;
47413;SDS011;33163;0.000;0.000;2022-10-31T02:14:42;12.15;;;6.38;;
47413;SDS011;33163;0.000;0.000;2022-10-31T02:17:09;10.90;;;6.63;;
47413;SDS011;33163;0.000;0.000;2022-10-31T02:19:37;11.63;;;6.55;;
47413;SDS011;33163;0.000;0.000;2022-10-31T02:22:15;10.80;;;6.38;;
47413;SDS011;33163;0.000;0.000;2022-10-31T02:27:28;9.30;;;5.90;;
47413;SDS011;33163;0.000;0.000;2022-10-31T02:30:20;9.48;;;5.53;;
47413;SDS011;33163;0.000;0.000;2022-10-31T02:32:55;9.70;;;5.90;;
47413;SDS011;33163;0.000;0.000;2022-10-31T02:35:33;8.48;;;5.50;;
47413;SDS011;33163;0.000;0.000;2022-10-31T02:38:08;8.43;;;5.28;;
47413;SDS011;33163;0.000;0.000;2022-10-31T02:40:44;9.07;;;5.22;;
47413;SDS011;33163;0.000;0.000;2022-10-31T02:43:19;6.85;;;5.15;;
47413;SDS011;33163;0.000;0.000;2022-10-31T02:45:54;8.43;;;5.03;;
47413;SDS011;33163;0.000;0.000;2022-10-31T02:48:26;6.10;;;4.85;;
47413;SDS011;33163;0.000;0.000;2022-10-31T02:50:55;7.60;;;4.75;;
47413;SDS011;33163;0.000;0.000;2022-10-31T02:53:25;10.73;;;4.97;;
47413;SDS011;33163;0.000;0.000;2022-10-31T02:55:55;7.32;;;4.53;;
47413;SDS011;33163;0.000;0.000;2022-10-31T02:58:25;11.30;;;5.28;;
47413;SDS011;33163;0.000;0.000;2022-10-31T03:00:59;8.13;;;3.95;;
47413;SDS011;33163;0.000;0.000;2022-10-31T03:03:39;7.72;;;3.83;;
47413;SDS011;33163;0.000;0.000;2022-10-31T03:06:17;6.65;;;4.00;;
47413;SDS011;33163;0.000;0.000;2022-10-31T03:08:53;6.35;;;4.53;;
47413;SDS011;33163;0.000;0.000;2022-10-31T03:11:28;7.30;;;4.43;;
47413;SDS011;33163;0.000;0.000;2022-10-31T03:14:03;6.40;;;3.75;;
47413;SDS011;33163;0.000;0.000;2022-10-31T03:16:37;6.30;;;3.88;;
47413;SDS011;33163;0.000;0.000;2022-10-31T03:19:12;6.60;;;3.83;;
47413;SDS011;33163;0.000;0.000;2022-10-31T03:21:43;6.28;;;3.75;;
47413;SDS011;33163;0.000;0.000;2022-10-31T03:24:12;5.72;;;3.60;;
47413;SDS011;33163;0.000;0.000;2022-10-31T03:26:41;4.38;;;3.08;;
47413;SDS011;33163;0.000;0.000;2022-10-31T03:29:13;4.25;;;3.30;;
47413;SDS011;33163;0.000;0.000;2022-10-31T03:31:43;8.02;;;4.35;;
47413;SDS011;33163;0.000;0.000;2022-10-31T03:34:15;6.07;;;4.00;;
47413;SDS011;33163;0.000;0.000;2022-10-31T03:36:45;5.35;;;3.60;;
47413;SDS011;33163;0.000;0.000;2022-10-31T03:39:15;5.78;;;3.53;;
47413;SDS011;33163;0.000;0.000;2022-10-31T03:41:46;5.05;;;3.25;;
47413;SDS011;33163;0.000;0.000;2022-10-31T03:44:19;4.50;;;3.25;;
47413;SDS011;33163;0.000;0.000;2022-10-31T03:46:47;5.40;;;3.20;;
47413;SDS011;33163;0.000;0.000;2022-10-31T03:49:16;4.50;;;3.28;;
47413;SDS011;33163;0.000;0.000;2022-10-31T03:51:44;5.97;;;3.60;;
47413;SDS011;33163;0.000;0.000;2022-10-31T03:54:18;5.28;;;2.95;;
47413;SDS011;33163;0.000;0.000;2022-10-31T03:56:50;4.05;;;2.80;;
47413;SDS011;33163;0.000;0.000;2022-10-31T03:59:20;5.07;;;3.25;;
47413;SDS011;33163;0.000;0.000;2022-10-31T04:01:51;3.95;;;2.72;;
47413;SDS011;33163;0.000;0.000;2022-10-31T04:04:24;4.63;;;2.30;;
47413;SDS011;33163;0.000;0.000;2022-10-31T04:06:53;3.20;;;2.40;;
47413;SDS011;33163;0.000;0.000;2022-10-31T04:09:22;3.55;;;2.47;;
47413;SDS011;33163;0.000;0.000;2022-10-31T04:11:50;3.60;;;2.67;;
47413;SDS011;33163;0.000;0.000;2022-10-31T04:14:19;6.63;;;3.08;;
47413;SDS011;33163;0.000;0.000;2022-10-31T04:16:48;4.43;;;2.55;;
47413;SDS011;33163;0.000;0.000;2022-10-31T04:19:14;3.00;;;2.20;;
47413;SDS011;33163;0.000;0.000;2022-10-31T04:21:43;5.18;;;2.50;;
47413;SDS011;33163;0.000;0.000;2022-10-31T04:24:10;4.38;;;2.45;;
47413;SDS011;33163;0.000;0.000;2022-10-31T04:26:37;3.20;;;2.08;;
47413;SDS011;33163;0.000;0.000;2022-10-31T04:29:04;3.53;;;2.35;;
47413;SDS011;33163;0.000;0.000;2022-10-31T04:31:30;4.75;;;2.28;;
47413;SDS011;33163;0.000;0.000;2022-10-31T04:33:57;3.40;;;2.25;;
47413;SDS011;33163;0.000;0.000;2022-10-31T04:36:24;3.80;;;2.30;;
47413;SDS011;33163;0.000;0.000;2022-10-31T04:38:52;3.15;;;1.90;;
47413;SDS011;33163;0.000;0.000;2022-10-31T04:41:19;2.75;;;2.03;;
47413;SDS011;33163;0.000;0.000;2022-10-31T04:43:45;3.65;;;2.50;;
47413;SDS011;33163;0.000;0.000;2022-10-31T04:46:12;2.83;;;2.10;;
47413;SDS011;33163;0.000;0.000;2022-10-31T04:48:39;2.30;;;1.90;;
47413;SDS011;33163;0.000;0.000;2022-10-31T04:51:05;3.08;;;2.33;;
47413;SDS011;33163;0.000;0.000;2022-10-31T04:53:32;2.80;;;2.17;;
47413;SDS011;33163;0.000;0.000;2022-10-31T04:56:00;2.90;;;2.05;;
47413;SDS011;33163;0.000;0.000;2022-10-31T04:58:27;4.80;;;2.38;;
47413;SDS011;33163;0.000;0.000;2022-10-31T05:00:54;3.53;;;2.08;;
47413;SDS011;33163;0.000;0.000;2022-10-31T05:03:22;2.97;;;2.17;;
47413;SDS011;33163;0.000;0.000;2022-10-31T05:05:49;3.35;;;2.17;;
47413;SDS011;33163;0.000;0.000;2022-10-31T05:08:16;3.58;;;2.28;;
47413;SDS011;33163;0.000;0.000;2022-10-31T05:10:43;5.50;;;2.20;;
47413;SDS011;33163;0.000;0.000;2022-10-31T05:13:11;2.40;;;2.00;;
47413;SDS011;33163;0.000;0.000;2022-10-31T05:15:39;5.75;;;2.10;;
47413;SDS011;33163;0.000;0.000;2022-10-31T05:18:06;2.22;;;1.90;;
47413;SDS011;33163;0.000;0.000;2022-10-31T05:20:33;2.17;;;1.65;;
47413;SDS011;33163;0.000;0.000;2022-10-31T05:23:00;4.45;;;2.10;;
47413;SDS011;33163;0.000;0.000;2022-10-31T05:25:27;3.13;;;1.88;;
47413;SDS011;33163;0.000;0.000;2022-10-31T05:27:55;1.98;;;1.75;;
47413;SDS011;33163;0.000;0.000;2022-10-31T05:30:24;3.45;;;1.90;;
47413;SDS011;33163;0.000;0.000;2022-10-31T05:32:52;4.07;;;1.45;;
47413;SDS011;33163;0.000;0.000;2022-10-31T05:35:19;4.80;;;2.22;;
47413;SDS011;33163;0.000;0.000;2022-10-31T05:37:47;3.60;;;2.00;;
47413;SDS011;33163;0.000;0.000;2022-10-31T05:40:17;3.78;;;1.70;;
47413;SDS011;33163;0.000;0.000;2022-10-31T05:42:45;3.30;;;1.83;;
47413;SDS011;33163;0.000;0.000;2022-10-31T05:45:13;2.25;;;1.65;;
47413;SDS011;33163;0.000;0.000;2022-10-31T05:47:49;2.70;;;1.80;;
47413;SDS011;33163;0.000;0.000;2022-10-31T05:50:16;4.25;;;2.10;;
47413;SDS011;33163;0.000;0.000;2022-10-31T05:52:43;2.55;;;1.98;;
47413;SDS011;33163;0.000;0.000;2022-10-31T05:55:10;3.33;;;2.17;;
47413;SDS011;33163;0.000;0.000;2022-10-31T05:57:37;2.17;;;1.95;;
47413;SDS011;33163;0.000;0.000;2022-10-31T06:00:04;3.67;;;2.30;;
47413;SDS011;33163;0.000;0.000;2022-10-31T06:02:31;2.70;;;2.22;;
47413;SDS011;33163;0.000;0.000;2022-10-31T06:05:00;2.67;;;1.80;;
47413;SDS011;33163;0.000;0.000;2022-10-31T06:07:31;2.72;;;2.25;;
47413;SDS011;33163;0.000;0.000;2022-10-31T06:09:58;2.72;;;2.13;;
47413;SDS011;33163;0.000;0.000;2022-10-31T06:12:25;3.35;;;2.03;;
47413;SDS011;33163;0.000;0.000;2022-10-31T06:14:52;2.95;;;2.10;;
47413;SDS011;33163;0.000;0.000;2022-10-31T06:17:19;3.40;;;1.92;;
47413;SDS011;33163;0.000;0.000;2022-10-31T06:19:45;3.15;;;2.22;;
47413;SDS011;33163;0.000;0.000;2022-10-31T06:22:13;2.35;;;2.00;;
47413;SDS011;33163;0.000;0.000;2022-10-31T06:24:40;3.40;;;2.13;;
47413;SDS011;33163;0.000;0.000;2022-10-31T06:27:07;3.67;;;2.15;;
47413;SDS011;33163;0.000;0.000;2022-10-31T06:29:33;4.07;;;2.35;;
47413;SDS011;33163;0.000;0.000;2022-10-31T06:32:00;2.88;;;2.28;;
47413;SDS011;33163;0.000;0.000;2022-10-31T06:34:27;2.53;;;1.90;;
47413;SDS011;33163;0.000;0.000;2022-10-31T06:36:53;2.88;;;2.10;;
47413;SDS011;33163;0.000;0.000;2022-10-31T06:39:21;2.35;;;2.10;;
47413;SDS011;33163;0.000;0.000;2022-10-31T06:41:48;5.07;;;1.75;;
47413;SDS011;33163;0.000;0.000;2022-10-31T06:44:15;2.80;;;1.92;;
47413;SDS011;33163;0.000;0.000;2022-10-31T06:46:42;3.17;;;2.08;;
47413;SDS011;33163;0.000;0.000;2022-10-31T06:49:08;4.93;;;1.90;;
47413;SDS011;33163;0.000;0.000;2022-10-31T06:51:35;4.07;;;2.35;;
47413;SDS011;33163;0.000;0.000;2022-10-31T06:54:02;2.53;;;1.95;;
47413;SDS011;33163;0.000;0.000;2022-10-31T06:56:30;2.45;;;1.95;;
47413;SDS011;33163;0.000;0.000;2022-10-31T06:58:57;5.03;;;2.80;;
47413;SDS011;33163;0.000;0.000;2022-10-31T07:01:23;5.45;;;2.00;;
47413;SDS011;33163;0.000;0.000;2022-10-31T07:03:50;7.65;;;1.80;;
47413;SDS011;33163;0.000;0.000;2022-10-31T07:06:17;3.67;;;1.80;;
47413;SDS011;33163;0.000;0.000;2022-10-31T07:08:44;3.78;;;1.95;;
47413;SDS011;33163;0.000;0.000;2022-10-31T07:11:10;2.45;;;2.00;;
47413;SDS011;33163;0.000;0.000;2022-10-31T07:13:38;2.95;;;2.20;;
47413;SDS011;33163;0.000;0.000;2022-10-31T07:16:05;3.72;;;2.45;;
47413;SDS011;33163;0.000;0.000;2022-10-31T07:18:33;4.05;;;2.72;;
47413;SDS011;33163;0.000;0.000;2022-10-31T07:21:00;4.53;;;2.70;;
47413;SDS011;33163;0.000;0.000;2022-10-31T07:23:27;3.28;;;2.20;;
47413;SDS011;33163;0.000;0.000;2022-10-31T07:25:54;6.35;;;2.65;;
47413;SDS011;33163;0.000;0.000;2022-10-31T07:28:22;4.80;;;2.20;;
47413;SDS011;33163;0.000;0.000;2022-10-31T07:30:50;5.45;;;2.35;;
47413;SDS011;33163;0.000;0.000;2022-10-31T07:33:18;4.13;;;2.20;;
47413;SDS011;33163;0.000;0.000;2022-10-31T07:35:45;5.68;;;2.42;;
47413;SDS011;33163;0.000;0.000;2022-10-31T07:38:12;2.78;;;2.05;;
47413;SDS011;33163;0.000;0.000;2022-10-31T07:40:40;4.90;;;2.40;;
47413;SDS011;33163;0.000;0.000;2022-10-31T07:43:08;4.88;;;2.13;;
47413;SDS011;33163;0.000;0.000;2022-10-31T07:45:37;3.20;;;1.92;;
47413;SDS011;33163;0.000;0.000;2022-10-31T07:48:05;6.60;;;2.80;;
47413;SDS011;33163;0.000;0.000;2022-10-31T07:50:32;3.47;;;2.40;;
47413;SDS011;33163;0.000;0.000;2022-10-31T07:52:59;3.92;;;2.25;;
47413;SDS011;33163;0.000;0.000;2022-10-31T07:55:27;5.57;;;2.45;;
47413;SDS011;33163;0.000;0.000;2022-10-31T07:57:55;3.65;;;2.13;;
47413;SDS011;33163;0.000;0.000;2022-10-31T08:00:23;4.95;;;2.35;;
47413;SDS011;33163;0.000;0.000;2022-10-31T08:02:55;3.88;;;2.60;;
47413;SDS011;33163;0.000;0.000;2022-10-31T08:05:24;3.88;;;2.65;;
47413;SDS011;33163;0.000;0.000;2022-10-31T08:07:51;3.40;;;2.40;;
47413;SDS011;33163;0.000;0.000;2022-10-31T08:10:18;3.42;;;2.40;;
47413;SDS011;33163;0.000;0.000;2022-10-31T08:12:45;3.53;;;2.33;;
47413;SDS011;33163;0.000;0.000;2022-10-31T08:15:11;5.38;;;2.85;;
47413;SDS011;33163;0.000;0.000;2022-10-31T08:17:38;4.07;;;2.83;;
47413;SDS011;33163;0.000;0.000;2022-10-31T08:20:05;4.90;;;2.60;;
47413;SDS011;33163;0.000;0.000;2022-10-31T08:22:33;3.60;;;2.80;;
47413;SDS011;33163;0.000;0.000;2022-10-31T08:25:00;7.47;;;3.38;;
47413;SDS011;33163;0.000;0.000;2022-10-31T08:27:27;4.30;;;3.25;;
47413;SDS011;33163;0.000;0.000;2022-10-31T08:29:53;4.50;;;3.13;;
47413;SDS011;33163;0.000;0.000;2022-10-31T08:32:20;4.47;;;2.75;;
47413;SDS011;33163;0.000;0.000;2022-10-31T08:34:47;4.53;;;2.95;;
47413;SDS011;33163;0.000;0.000;2022-10-31T08:37:13;4.80;;;2.88;;
47413;SDS011;33163;0.000;0.000;2022-10-31T08:39:46;5.43;;;3.55;;
47413;SDS011;33163;0.000;0.000;2022-10-31T08:42:12;5.20;;;3.20;;
47413;SDS011;33163;0.000;0.000;2022-10-31T08:44:39;3.78;;;2.75;;
47413;SDS011;33163;0.000;0.000;2022-10-31T08:47:06;6.35;;;3.33;;
47413;SDS011;33163;0.000;0.000;2022-10-31T08:49:32;4.10;;;2.72;;
47413;SDS011;33163;0.000;0.000;2022-10-31T08:51:59;3.90;;;3.00;;
47413;SDS011;33163;0.000;0.000;2022-10-31T08:54:26;6.85;;;3.70;;
47413;SDS011;33163;0.000;0.000;2022-10-31T08:56:54;7.95;;;3.40;;
47413;SDS011;33163;0.000;0.000;2022-10-31T08:59:21;6.25;;;3.53;;
47413;SDS011;33163;0.000;0.000;2022-10-31T09:01:48;4.32;;;2.70;;
47413;SDS011;33163;0.000;0.000;2022-10-31T09:04:15;8.73;;;3.95;;
47413;SDS011;33163;0.000;0.000;2022-10-31T09:06:41;4.45;;;3.25;;
47413;SDS011;33163;0.000;0.000;2022-10-31T09:09:08;7.18;;;2.70;;
47413;SDS011;33163;0.000;0.000;2022-10-31T09:11:35;5.72;;;3.70;;
47413;SDS011;33163;0.000;0.000;2022-10-31T09:14:03;4.40;;;2.88;;
47413;SDS011;33163;0.000;0.000;2022-10-31T09:16:30;5.15;;;3.80;;
47413;SDS011;33163;0.000;0.000;2022-10-31T09:18:56;6.03;;;3.70;;
47413;SDS011;33163;0.000;0.000;2022-10-31T09:21:23;6.03;;;4.07;;
47413;SDS011;33163;0.000;0.000;2022-10-31T09:23:50;7.90;;;3.53;;
47413;SDS011;33163;0.000;0.000;2022-10-31T09:26:18;6.43;;;3.67;;
47413;SDS011;33163;0.000;0.000;2022-10-31T09:28:45;5.85;;;3.88;;
47413;SDS011;33163;0.000;0.000;2022-10-31T09:31:13;7.72;;;3.20;;
47413;SDS011;33163;0.000;0.000;2022-10-31T09:33:40;5.55;;;3.47;;
47413;SDS011;33163;0.000;0.000;2022-10-31T09:36:07;6.13;;;3.60;;
47413;SDS011;33163;0.000;0.000;2022-10-31T09:38:34;8.18;;;3.67;;
47413;SDS011;33163;0.000;0.000;2022-10-31T09:41:01;9.20;;;4.55;;
47413;SDS011;33163;0.000;0.000;2022-10-31T09:43:39;5.68;;;3.90;;
47413;SDS011;33163;0.000;0.000;2022-10-31T09:46:17;6.93;;;4.03;;
47413;SDS011;33163;0.000;0.000;2022-10-31T09:48:52;6.85;;;4.65;;
47413;SDS011;33163;0.000;0.000;2022-10-31T09:51:28;9.98;;;5.30;;
47413;SDS011;33163;0.000;0.000;2022-10-31T09:53:57;7.15;;;4.55;;
47413;SDS011;33163;0.000;0.000;2022-10-31T09:56:29;8.35;;;4.30;;
47413;SDS011;33163;0.000;0.000;2022-10-31T09:58:58;8.55;;;4.68;;
47413;SDS011;33163;0.000;0.000;2022-10-31T10:01:34;6.00;;;3.95;;
47413;SDS011;33163;0.000;0.000;2022-10-31T10:04:10;9.57;;;4.03;;
47413;SDS011;33163;0.000;0.000;2022-10-31T10:06:53;8.45;;;4.30;;
47413;SDS011;33163;0.000;0.000;2022-10-31T10:09:21;7.78;;;4.60;;
47413;SDS011;33163;0.000;0.000;2022-10-31T10:11:54;7.13;;;4.28;;
47413;SDS011;33163;0.000;0.000;2022-10-31T10:14:32;5.03;;;3.83;;
47413;SDS011;33163;0.000;0.000;2022-10-31T10:17:13;7.05;;;3.80;;
47413;SDS011;33163;0.000;0.000;2022-10-31T10:19:56;8.85;;;4.25;;
47413;SDS011;33163;0.000;0.000;2022-10-31T10:22:47;8.75;;;4.13;;
47413;SDS011;33163;0.000;0.000;2022-10-31T10:25:20;7.60;;;4.10;;
47413;SDS011;33163;0.000;0.000;2022-10-31T10:27:50;9.57;;;4.03;;
47413;SDS011;33163;0.000;0.000;2022-10-31T10:30:26;8.27;;;4.03;;
47413;SDS011;33163;0.000;0.000;2022-10-31T10:33:02;7.03;;;4.50;;
47413;SDS011;33163;0.000;0.000;2022-10-31T10:35:36;6.90;;;4.35;;
47413;SDS011;33163;0.000;0.000;2022-10-31T10:38:10;6.50;;;3.90;;
47413;SDS011;33163;0.000;0.000;2022-10-31T10:40:41;5.60;;;3.50;;
47413;SDS011;33163;0.000;0.000;2022-10-31T10:43:18;8.52;;;3.72;;
47413;SDS011;33163;0.000;0.000;2022-10-31T10:45:49;9.27;;;4.40;;
47413;SDS011;33163;0.000;0.000;2022-10-31T10:48:49;11.57;;;3.33;;
47413;SDS011;33163;0.000;0.000;2022-10-31T10:51:21;7.80;;;3.38;;
47413;SDS011;33163;0.000;0.000;2022-10-31T10:53:54;5.07;;;2.97;;
47413;SDS011;33163;0.000;0.000;2022-10-31T10:56:40;6.95;;;3.92;;
47413;SDS011;33163;0.000;0.000;2022-10-31T10:59:12;6.60;;;3.38;;
47413;SDS011;33163;0.000;0.000;2022-10-31T11:01:42;8.55;;;3.72;;
47413;SDS011;33163;0.000;0.000;2022-10-31T11:04:19;7.20;;;3.58;;
47413;SDS011;33163;0.000;0.000;2022-10-31T11:06:57;6.13;;;3.88;;
47413;SDS011;33163;0.000;0.000;2022-10-31T11:09:25;6.32;;;3.53;;
47413;SDS011;33163;0.000;0.000;2022-10-31T11:11:51;5.18;;;3.67;;
47413;SDS011;33163;0.000;0.000;2022-10-31T11:14:19;9.00;;;3.90;;
47413;SDS011;33163;0.000;0.000;2022-10-31T11:16:48;9.32;;;3.50;;
47413;SDS011;33163;0.000;0.000;2022-10-31T11:19:18;14.90;;;4.15;;
47413;SDS011;33163;0.000;0.000;2022-10-31T11:21:47;4.80;;;3.10;;
47413;SDS011;33163;0.000;0.000;2022-10-31T11:24:15;5.68;;;3.55;;
47413;SDS011;33163;0.000;0.000;2022-10-31T11:26:44;7.20;;;3.38;;
47413;SDS011;33163;0.000;0.000;2022-10-31T11:29:13;11.48;;;4.30;;
47413;SDS011;33163;0.000;0.000;2022-10-31T11:31:43;6.05;;;3.53;;
47413;SDS011;33163;0.000;0.000;2022-10-31T11:34:18;7.90;;;4.05;;
47413;SDS011;33163;0.000;0.000;2022-10-31T11:36:54;12.15;;;4.25;;
47413;SDS011;33163;0.000;0.000;2022-10-31T11:39:27;9.20;;;4.10;;
47413;SDS011;33163;0.000;0.000;2022-10-31T11:41:54;7.88;;;4.15;;
47413;SDS011;33163;0.000;0.000;2022-10-31T11:44:26;10.30;;;4.28;;
47413;SDS011;33163;0.000;0.000;2022-10-31T11:46:55;8.90;;;4.18;;
47413;SDS011;33163;0.000;0.000;2022-10-31T11:49:27;7.70;;;4.10;;
47413;SDS011;33163;0.000;0.000;2022-10-31T11:51:57;7.43;;;4.65;;
47413;SDS011;33163;0.000;0.000;2022-10-31T11:54:26;8.07;;;4.38;;
47413;SDS011;33163;0.000;0.000;2022-10-31T11:56:55;7.40;;;4.20;;
47413;SDS011;33163;0.000;0.000;2022-10-31T11:59:23;11.77;;;4.05;;
47413;SDS011;33163;0.000;0.000;2022-10-31T12:01:53;6.55;;;3.67;;
47413;SDS011;33163;0.000;0.000;2022-10-31T12:04:23;5.68;;;3.50;;
47413;SDS011;33163;0.000;0.000;2022-10-31T12:06:57;8.35;;;4.47;;
47413;SDS011;33163;0.000;0.000;2022-10-31T12:09:25;8.15;;;4.18;;
47413;SDS011;33163;0.000;0.000;2022-10-31T12:12:06;8.02;;;4.28;;
47413;SDS011;33163;0.000;0.000;2022-10-31T12:14:46;11.27;;;4.50;;
47413;SDS011;33163;0.000;0.000;2022-10-31T12:17:21;7.25;;;4.25;;
47413;SDS011;33163;0.000;0.000;2022-10-31T12:19:59;9.30;;;3.95;;
47413;SDS011;33163;0.000;0.000;2022-10-31T12:22:35;11.38;;;4.32;;
47413;SDS011;33163;0.000;0.000;2022-10-31T12:25:11;8.57;;;4.63;;
47413;SDS011;33163;0.000;0.000;2022-10-31T12:27:50;6.32;;;4.40;;
47413;SDS011;33163;0.000;0.000;2022-10-31T12:30:26;9.98;;;4.97;;
47413;SDS011;33163;0.000;0.000;2022-10-31T12:33:05;9.98;;;4.70;;
47413;SDS011;33163;0.000;0.000;2022-10-31T12:35:50;10.38;;;5.00;;
47413;SDS011;33163;0.000;0.000;2022-10-31T12:38:30;7.15;;;4.35;;
47413;SDS011;33163;0.000;0.000;2022-10-31T12:41:15;9.55;;;5.03;;
47413;SDS011;33163;0.000;0.000;2022-10-31T12:43:54;9.75;;;4.28;;
47413;SDS011;33163;0.000;0.000;2022-10-31T12:46:29;11.02;;;5.30;;
47413;SDS011;33163;0.000;0.000;2022-10-31T12:49:20;7.63;;;4.30;;
47413;SDS011;33163;0.000;0.000;2022-10-31T12:52:03;8.55;;;4.50;;
47413;SDS011;33163;0.000;0.000;2022-10-31T12:54:45;7.47;;;4.35;;
47413;SDS011;33163;0.000;0.000;2022-10-31T12:57:22;8.55;;;4.88;;
47413;SDS011;33163;0.000;0.000;2022-10-31T12:59:57;11.23;;;4.78;;
47413;SDS011;33163;0.000;0.000;2022-10-31T13:02:27;9.20;;;4.53;;
47413;SDS011;33163;0.000;0.000;2022-10-31T13:04:58;7.70;;;4.57;;
47413;SDS011;33163;0.000;0.000;2022-10-31T13:07:29;8.85;;;4.43;;
47413;SDS011;33163;0.000;0.000;2022-10-31T13:10:05;9.27;;;4.93;;
47413;SDS011;33163;0.000;0.000;2022-10-31T13:12:39;8.95;;;5.25;;
47413;SDS011;33163;0.000;0.000;2022-10-31T13:15:12;8.93;;;4.93;;
47413;SDS011;33163;0.000;0.000;2022-10-31T13:17:42;12.17;;;4.60;;
47413;SDS011;33163;0.000;0.000;2022-10-31T13:20:15;8.15;;;4.85;;
47413;SDS011;33163;0.000;0.000;2022-10-31T13:22:48;11.23;;;6.03;;
47413;SDS011;33163;0.000;0.000;2022-10-31T13:25:19;12.82;;;6.15;;
47413;SDS011;33163;0.000;0.000;2022-10-31T13:27:51;12.05;;;6.22;;
47413;SDS011;33163;0.000;0.000;2022-10-31T13:30:21;11.25;;;5.95;;
47413;SDS011;33163;0.000;0.000;2022-10-31T13:32:50;13.02;;;6.45;;
47413;SDS011;33163;0.000;0.000;2022-10-31T13:35:22;12.18;;;5.95;;
47413;SDS011;33163;0.000;0.000;2022-10-31T13:38:00;13.63;;;5.93;;
47413;SDS011;33163;0.000;0.000;2022-10-31T13:40:37;14.00;;;6.20;;
47413;SDS011;33163;0.000;0.000;2022-10-31T13:45:49;11.35;;;6.30;;
47413;SDS011;33163;0.000;0.000;2022-10-31T13:48:19;13.77;;;6.10;;
47413;SDS011;33163;0.000;0.000;2022-10-31T13:51:00;11.07;;;6.13;;
47413;SDS011;33163;0.000;0.000;2022-10-31T13:53:36;16.05;;;7.45;;
47413;SDS011;33163;0.000;0.000;2022-10-31T13:56:09;14.25;;;6.43;;
47413;SDS011;33163;0.000;0.000;2022-10-31T13:58:41;13.93;;;7.10;;
47413;SDS011;33163;0.000;0.000;2022-10-31T14:01:20;13.70;;;6.47;;
47413;SDS011;33163;0.000;0.000;2022-10-31T14:03:55;9.50;;;5.57;;
47413;SDS011;33163;0.000;0.000;2022-10-31T14:06:34;12.95;;;6.47;;
47413;SDS011;33163;0.000;0.000;2022-10-31T14:09:14;11.27;;;6.38;;
47413;SDS011;33163;0.000;0.000;2022-10-31T14:11:48;13.68;;;6.80;;
47413;SDS011;33163;0.000;0.000;2022-10-31T14:14:16;13.63;;;6.97;;
47413;SDS011;33163;0.000;0.000;2022-10-31T14:16:44;14.85;;;6.93;;
47413;SDS011;33163;0.000;0.000;2022-10-31T14:19:16;13.18;;;5.97;;
47413;SDS011;33163;0.000;0.000;2022-10-31T14:21:47;16.00;;;7.43;;
47413;SDS011;33163;0.000;0.000;2022-10-31T14:24:30;9.23;;;7.10;;
47413;SDS011;33163;0.000;0.000;2022-10-31T14:27:00;13.43;;;7.13;;
47413;SDS011;33163;0.000;0.000;2022-10-31T14:29:28;11.00;;;6.30;;
47413;SDS011;33163;0.000;0.000;2022-10-31T14:31:58;10.90;;;5.95;;
47413;SDS011;33163;0.000;0.000;2022-10-31T14:34:33;13.00;;;7.47;;
47413;SDS011;33163;0.000;0.000;2022-10-31T14:39:36;13.20;;;7.30;;
47413;SDS011;33163;0.000;0.000;2022-10-31T14:42:13;14.50;;;7.13;;
47413;SDS011;33163;0.000;0.000;2022-10-31T14:44:57;14.80;;;7.40;;
47413;SDS011;33163;0.000;0.000;2022-10-31T14:47:36;12.00;;;6.85;;
47413;SDS011;33163;0.000;0.000;2022-10-31T14:50:24;16.07;;;7.43;;
47413;SDS011;33163;0.000;0.000;2022-10-31T14:53:00;11.63;;;6.85;;
47413;SDS011;33163;0.000;0.000;2022-10-31T14:55:30;15.93;;;7.47;;
47413;SDS011;33163;0.000;0.000;2022-10-31T14:57:59;13.85;;;6.90;;
47413;SDS011;33163;0.000;0.000;2022-10-31T15:00:28;15.02;;;7.05;;
47413;SDS011;33163;0.000;0.000;2022-10-31T15:03:00;12.18;;;7.50;;
47413;SDS011;33163;0.000;0.000;2022-10-31T15:05:33;12.57;;;7.07;;
47413;SDS011;33163;0.000;0.000;2022-10-31T15:08:12;10.57;;;7.40;;
47413;SDS011;33163;0.000;0.000;2022-10-31T15:10:52;25.35;;;7.18;;
47413;SDS011;33163;0.000;0.000;2022-10-31T15:13:20;12.60;;;7.50;;
47413;SDS011;33163;0.000;0.000;2022-10-31T15:15:48;17.48;;;8.02;;
47413;SDS011;33163;0.000;0.000;2022-10-31T15:18:17;13.07;;;7.70;;
47413;SDS011;33163;0.000;0.000;2022-10-31T15:20:49;14.13;;;7.85;;
47413;SDS011;33163;0.000;0.000;2022-10-31T15:23:25;14.48;;;7.30;;
47413;SDS011;33163;0.000;0.000;2022-10-31T15:26:01;12.23;;;7.00;;